createdAt,value
2018-05-26T00:03:05.243Z,11.82
2018-05-26T00:07:39.968Z,11.70
2018-05-26T00:12:14.022Z,12.02
2018-05-26T00:16:47.313Z,12.10
2018-05-26T00:21:20.743Z,12.00
2018-05-26T00:25:54.100Z,12.63
2018-05-26T00:30:27.451Z,15.30
2018-05-26T00:35:01.410Z,12.70
2018-05-26T00:39:34.661Z,12.02
2018-05-26T00:44:07.884Z,11.80
2018-05-26T00:48:41.866Z,12.40
2018-05-26T00:53:15.061Z,12.20
2018-05-26T00:57:48.282Z,13.10
2018-05-26T01:02:21.470Z,13.23
2018-05-26T01:06:54.869Z,13.70
2018-05-26T01:11:28.057Z,12.90
2018-05-26T01:16:02.040Z,12.75
2018-05-26T01:20:35.241Z,12.20
2018-05-26T01:25:08.578Z,13.38
2018-05-26T01:29:41.803Z,13.25
2018-05-26T01:34:15.763Z,13.82
2018-05-26T01:38:48.972Z,14.00
2018-05-26T01:43:22.166Z,13.90
2018-05-26T01:47:55.365Z,13.13
2018-05-26T01:52:28.646Z,13.48
2018-05-26T01:57:02.577Z,13.73
2018-05-26T02:01:36.537Z,13.15
2018-05-26T02:06:09.754Z,14.80
2018-05-26T02:10:42.946Z,14.73
2018-05-26T02:15:16.162Z,15.32
2018-05-26T02:19:49.377Z,14.43
2018-05-26T02:24:22.569Z,14.20
2018-05-26T02:28:55.785Z,13.02
2018-05-26T02:33:29.040Z,15.05
2018-05-26T02:38:02.225Z,14.27
2018-05-26T02:42:35.427Z,13.48
2018-05-26T02:47:08.597Z,13.48
2018-05-26T02:51:41.785Z,14.35
2018-05-26T02:56:15.006Z,14.02
2018-05-26T03:00:48.250Z,14.13
2018-05-26T03:05:27.154Z,13.85
2018-05-26T03:10:06.394Z,14.50
2018-05-26T03:14:45.538Z,13.75
2018-05-26T03:19:18.759Z,13.35
2018-05-26T03:23:51.950Z,13.18
2018-05-26T03:28:25.185Z,13.73
2018-05-26T03:32:58.414Z,14.55
2018-05-26T03:37:31.634Z,14.02
2018-05-26T03:42:04.871Z,14.38
2018-05-26T03:46:38.862Z,14.75
2018-05-26T03:51:12.270Z,14.98
2018-05-26T04:00:54.210Z,15.07
2018-05-26T04:05:27.425Z,14.32
2018-05-26T04:10:01.442Z,13.67
2018-05-26T04:14:34.610Z,14.15
2018-05-26T04:19:07.802Z,14.55
2018-05-26T04:23:41.026Z,14.32
2018-05-26T04:28:14.260Z,13.88
2018-05-26T04:32:47.453Z,14.10
2018-05-26T04:37:20.645Z,14.27
2018-05-26T04:41:53.849Z,13.40
2018-05-26T04:46:27.222Z,13.48
2018-05-26T04:51:00.458Z,14.05
2018-05-26T04:55:33.625Z,14.75
2018-05-26T05:00:07.604Z,14.85
2018-05-26T05:04:40.802Z,14.52
2018-05-26T05:09:14.676Z,15.48
2018-05-26T05:13:47.922Z,15.13
2018-05-26T05:18:21.105Z,13.93
2018-05-26T05:22:55.232Z,14.35
2018-05-26T05:27:29.190Z,17.00
2018-05-26T05:32:02.379Z,16.12
2018-05-26T05:36:36.363Z,14.93
2018-05-26T05:41:09.606Z,15.18
2018-05-26T05:45:42.932Z,15.68
2018-05-26T05:50:16.212Z,15.82
2018-05-26T05:54:50.145Z,14.95
2018-05-26T05:59:24.102Z,15.63
2018-05-26T06:03:57.346Z,16.35
2018-05-26T06:08:31.307Z,16.50
2018-05-26T06:13:05.286Z,16.08
2018-05-26T06:17:38.478Z,16.58
2018-05-26T06:22:11.713Z,15.00
2018-05-26T06:26:44.915Z,14.80
2018-05-26T06:31:18.371Z,14.32
2018-05-26T06:35:51.583Z,13.15
2018-05-26T06:40:24.816Z,13.38
2018-05-26T06:44:58.072Z,11.77
2018-05-26T06:49:32.104Z,10.48
2018-05-26T06:54:06.074Z,10.60
2018-05-26T06:58:39.242Z,9.23
2018-05-26T07:03:13.273Z,9.38
2018-05-26T07:07:46.494Z,8.88
2018-05-26T07:12:20.004Z,7.97
2018-05-26T07:16:53.520Z,8.43
2018-05-26T07:21:26.737Z,8.02
2018-05-26T07:25:59.923Z,8.70
2018-05-26T07:30:33.898Z,8.68
2018-05-26T07:35:07.087Z,7.95
2018-05-26T07:39:40.293Z,8.20
2018-05-26T07:44:13.568Z,7.55
2018-05-26T07:48:47.751Z,7.15
2018-05-26T07:53:20.931Z,6.50
2018-05-26T07:57:54.248Z,7.82
2018-05-26T08:02:28.919Z,7.90
2018-05-26T08:07:02.133Z,6.78
2018-05-26T08:11:35.318Z,6.45
2018-05-26T08:16:08.514Z,6.43
2018-05-26T08:20:41.697Z,6.18
2018-05-26T08:25:14.906Z,6.37
2018-05-26T08:29:48.115Z,6.45
2018-05-26T08:34:21.332Z,6.57
2018-05-26T08:38:54.578Z,6.22
2018-05-26T08:43:28.518Z,6.18
2018-05-26T08:48:02.470Z,5.70
2018-05-26T08:52:35.626Z,5.75
2018-05-26T08:57:08.811Z,5.75
2018-05-26T09:01:42.024Z,5.72
2018-05-26T09:06:15.211Z,5.28
2018-05-26T09:10:48.482Z,4.72
2018-05-26T09:15:22.434Z,4.85
2018-05-26T09:19:55.649Z,4.55
2018-05-26T09:24:28.862Z,4.32
2018-05-26T09:29:02.075Z,5.47
2018-05-26T09:33:35.286Z,5.75
2018-05-26T09:38:08.482Z,5.07
2018-05-26T09:42:41.698Z,4.53
2018-05-26T09:47:15.801Z,4.50
2018-05-26T09:51:49.294Z,4.22
2018-05-26T09:56:22.583Z,4.20
2018-05-26T10:00:55.914Z,3.83
2018-05-26T10:05:29.207Z,4.15
2018-05-26T10:10:03.150Z,3.65
2018-05-26T10:14:36.390Z,4.25
2018-05-26T10:19:09.596Z,3.80
2018-05-26T10:23:42.777Z,3.60
2018-05-26T10:28:16.002Z,4.20
2018-05-26T10:32:49.190Z,3.70
2018-05-26T10:37:22.374Z,3.35
2018-05-26T10:41:56.358Z,3.47
2018-05-26T10:46:29.573Z,3.70
2018-05-26T10:51:02.773Z,3.30
2018-05-26T10:55:35.933Z,3.42
2018-05-26T11:00:09.159Z,2.95
2018-05-26T11:04:42.338Z,3.37
2018-05-26T11:09:16.655Z,3.15
2018-05-26T11:13:50.627Z,3.00
2018-05-26T11:18:23.810Z,3.10
2018-05-26T11:22:57.017Z,3.00
2018-05-26T11:27:30.238Z,2.80
2018-05-26T11:32:03.445Z,2.80
2018-05-26T11:36:36.678Z,3.40
2018-05-26T11:41:09.870Z,3.22
2018-05-26T11:45:43.052Z,2.83
2018-05-26T11:50:16.235Z,3.30
2018-05-26T11:54:49.478Z,3.05
2018-05-26T11:59:22.781Z,3.00
2018-05-26T12:03:56.022Z,2.95
2018-05-26T12:08:29.206Z,3.10
2018-05-26T12:13:02.407Z,2.92
2018-05-26T12:17:35.909Z,2.70
2018-05-26T12:22:09.418Z,3.42
2018-05-26T12:26:44.129Z,2.90
2018-05-26T12:31:18.103Z,2.87
2018-05-26T12:35:51.295Z,3.08
2018-05-26T12:40:24.476Z,2.87
2018-05-26T12:44:58.426Z,3.20
2018-05-26T12:49:31.635Z,3.03
2018-05-26T12:54:04.837Z,2.85
2018-05-26T12:58:38.026Z,2.80
2018-05-26T13:03:12.057Z,2.90
2018-05-26T13:07:45.987Z,3.20
2018-05-26T13:12:19.282Z,2.87
2018-05-26T13:16:53.334Z,3.35
2018-05-26T13:21:26.533Z,3.50
2018-05-26T13:25:59.751Z,3.60
2018-05-26T13:30:33.518Z,3.45
2018-05-26T13:35:06.726Z,3.53
2018-05-26T13:39:40.231Z,3.45
2018-05-26T13:44:13.451Z,3.25
2018-05-26T13:48:48.423Z,3.90
2018-05-26T13:53:22.476Z,3.80
2018-05-26T13:57:55.573Z,4.05
2018-05-26T14:02:28.759Z,3.95
2018-05-26T14:07:02.762Z,3.83
2018-05-26T14:11:35.985Z,3.50
2018-05-26T14:16:09.910Z,3.53
2018-05-26T14:20:43.896Z,3.80
2018-05-26T14:25:17.083Z,3.42
2018-05-26T14:29:50.277Z,3.10
2018-05-26T14:34:23.594Z,2.97
2018-05-26T14:38:56.786Z,3.00
2018-05-26T14:43:30.070Z,3.03
2018-05-26T14:48:04.024Z,2.72
2018-05-26T14:52:37.245Z,2.58
2018-05-26T14:57:10.463Z,2.80
2018-05-26T15:01:43.642Z,3.10
2018-05-26T15:06:16.854Z,2.87
2018-05-26T15:10:50.042Z,2.97
2018-05-26T15:15:23.270Z,2.78
2018-05-26T15:19:56.459Z,2.90
2018-05-26T15:24:29.686Z,3.00
2018-05-26T15:29:02.954Z,2.95
2018-05-26T15:33:36.946Z,2.90
2018-05-26T15:38:10.219Z,3.00
2018-05-26T15:42:43.428Z,3.10
2018-05-26T15:47:16.622Z,3.03
2018-05-26T15:51:49.811Z,2.92
2018-05-26T15:56:23.762Z,3.70
2018-05-26T16:00:57.050Z,2.80
2018-05-26T16:05:31.094Z,3.28
2018-05-26T16:10:04.329Z,3.08
2018-05-26T16:14:37.542Z,3.20
2018-05-26T16:19:10.720Z,3.45
2018-05-26T16:23:43.902Z,3.10
2018-05-26T16:28:17.855Z,3.30
2018-05-26T16:32:51.031Z,3.30
2018-05-26T16:37:25.017Z,3.00
2018-05-26T16:41:58.200Z,3.08
2018-05-26T16:46:31.461Z,4.78
2018-05-26T16:51:05.450Z,7.15
2018-05-26T16:55:38.674Z,4.30
2018-05-26T17:00:11.838Z,3.92
2018-05-26T17:04:45.018Z,4.62
2018-05-26T17:09:18.314Z,8.80
2018-05-26T17:13:51.550Z,5.10
2018-05-26T17:18:24.750Z,18.10
2018-05-26T17:22:58.040Z,4.55
2018-05-26T17:27:31.993Z,4.22
2018-05-26T17:32:05.207Z,4.97
2018-05-26T17:36:38.478Z,4.45
2018-05-26T17:41:11.757Z,4.30
2018-05-26T17:45:44.992Z,4.55
2018-05-26T17:50:18.967Z,4.75
2018-05-26T17:54:52.326Z,4.82
2018-05-26T17:59:26.277Z,8.95
2018-05-26T18:03:59.474Z,9.25
2018-05-26T18:08:32.678Z,7.87
2018-05-26T18:13:05.864Z,5.45
2018-05-26T18:17:39.079Z,5.57
2018-05-26T18:22:13.033Z,5.90
2018-05-26T18:26:46.343Z,6.90
2018-05-26T18:31:19.510Z,9.75
2018-05-26T18:35:52.731Z,7.30
2018-05-26T18:40:26.793Z,7.93
2018-05-26T18:45:00.047Z,15.13
2018-05-26T18:49:33.414Z,9.05
2018-05-26T18:54:06.718Z,7.40
2018-05-26T18:58:39.903Z,8.10
2018-05-26T19:03:13.114Z,10.57
2018-05-26T19:07:46.324Z,10.68
2018-05-26T19:12:19.574Z,10.98
2018-05-26T19:16:53.529Z,9.70
2018-05-26T19:21:27.555Z,7.37
2018-05-26T19:26:02.264Z,7.28
2018-05-26T19:30:35.450Z,7.05
2018-05-26T19:35:08.682Z,7.50
2018-05-26T19:39:43.289Z,7.35
2018-05-26T19:44:16.550Z,6.97
2018-05-26T19:48:50.505Z,6.43
2018-05-26T19:53:23.885Z,7.07
2018-05-26T19:57:57.051Z,7.80
2018-05-26T20:02:30.594Z,8.52
2018-05-26T20:07:03.918Z,8.68
2018-05-26T20:11:37.644Z,8.30
2018-05-26T20:16:11.878Z,6.97
2018-05-26T20:20:45.327Z,6.85
2018-05-26T20:25:18.547Z,7.43
2018-05-26T20:29:51.759Z,7.30
2018-05-26T20:34:25.336Z,7.22
2018-05-26T20:38:58.598Z,6.22
2018-05-26T20:43:33.035Z,6.70
2018-05-26T20:48:06.226Z,6.43
2018-05-26T20:52:39.437Z,6.75
2018-05-26T20:57:12.593Z,7.72
2018-05-26T21:01:45.791Z,7.37
2018-05-26T21:06:19.950Z,8.32
2018-05-26T21:10:53.139Z,7.03
2018-05-26T21:15:26.326Z,8.13
2018-05-26T21:20:00.296Z,8.43
2018-05-26T21:24:33.540Z,7.97
2018-05-26T21:29:06.694Z,8.10
2018-05-26T21:33:39.914Z,8.10
2018-05-26T21:38:13.094Z,8.98
2018-05-26T21:42:46.323Z,19.80
2018-05-26T21:47:19.491Z,19.00
2018-05-26T21:51:53.446Z,20.83
2018-05-26T21:56:26.678Z,15.27
2018-05-26T22:00:59.878Z,13.13
2018-05-26T22:05:33.043Z,10.25
2018-05-26T22:10:06.230Z,9.85
2018-05-26T22:14:40.349Z,8.30
2018-05-26T22:19:13.566Z,7.87
2018-05-26T22:23:47.569Z,8.40
2018-05-26T22:28:20.762Z,8.07
2018-05-26T22:32:53.927Z,8.20
2018-05-26T22:37:27.160Z,9.82
2018-05-26T22:42:00.363Z,10.07
2018-05-26T22:46:33.599Z,9.55
2018-05-26T22:51:06.787Z,8.68
2018-05-26T22:55:40.031Z,9.15
2018-05-26T23:00:13.231Z,8.95
2018-05-26T23:04:46.502Z,9.00
2018-05-26T23:09:19.693Z,18.45
2018-05-26T23:13:52.890Z,30.77
2018-05-26T23:18:26.082Z,25.05
2018-05-26T23:22:59.302Z,25.60
2018-05-26T23:27:32.499Z,15.02
2018-05-26T23:32:06.486Z,13.77
2018-05-26T23:36:40.498Z,12.07
2018-05-26T23:41:13.671Z,13.55
2018-05-26T23:45:46.911Z,12.37
2018-05-26T23:50:20.083Z,11.32
2018-05-26T23:54:53.307Z,11.88
2018-05-26T23:59:26.610Z,10.38
